Time;durP1;ratioP1;P1;durP2;ratioP2;P2;SDS_P1;SDS_P2;PMS_P1;PMS_P2;Temp;Humidity;BMP_temperature;BMP_pressure;BME280_temperature;BME280_humidity;BME280_pressure;Samples;Min_cycle;Max_cycle;Signal;HPM_P1;HPM_P2
2023/08/19 00:02:10;;;;;;;9.10;5.95;;;;;;;;;;6258184;28;20037;-77
2023/08/19 00:05:12;;;;;;;12.60;6.43;;;;;;;;;;6242072;28;20048;-78
2023/08/19 00:08:13;;;;;;;8.90;6.00;;;;;;;;;;6260692;28;20127;-77
2023/08/19 00:11:15;;;;;;;11.63;5.57;;;;;;;;;;6256142;28;20049;-78
2023/08/19 00:14:16;;;;;;;10.00;5.82;;;;;;;;;;6241454;28;20047;-78
2023/08/19 00:17:19;;;;;;;9.38;6.28;;;;;;;;;;6257974;28;20045;-78
2023/08/19 00:20:21;;;;;;;10.00;5.85;;;;;;;;;;6254230;28;20036;-78
2023/08/19 00:23:24;;;;;;;11.40;6.27;;;;;;;;;;6248244;28;20045;-77
2023/08/19 00:26:26;;;;;;;;;;;;;;;;;;6256378;28;20455;-79
2023/08/19 00:29:27;;;;;;;9.52;5.97;;;;;;;;;;6244719;28;19931;-78
2023/08/19 00:32:30;;;;;;;9.40;5.63;;;;;;;;;;6268925;28;20533;-77
2023/08/19 00:35:32;;;;;;;;;;;;;;;;;;6239531;28;20037;-78
2023/08/19 00:38:34;;;;;;;8.05;5.68;;;;;;;;;;6269286;28;19998;-77
2023/08/19 00:41:35;;;;;;;8.48;5.95;;;;;;;;;;6253886;28;20485;-78
2023/08/19 00:44:37;;;;;;;11.30;6.50;;;;;;;;;;6262135;28;20040;-77
2023/08/19 00:47:39;;;;;;;10.18;6.28;;;;;;;;;;6276393;28;20048;-78
2023/08/19 00:50:42;;;;;;;9.43;6.37;;;;;;;;;;6265723;28;20525;-79
2023/08/19 00:53:44;;;;;;;13.43;5.97;;;;;;;;;;6260441;28;20442;-77
2023/08/19 00:56:46;;;;;;;8.63;6.00;;;;;;;;;;6284758;28;20045;-78
2023/08/19 00:59:48;;;;;;;11.00;6.45;;;;;;;;;;6286260;28;20044;-78
2023/08/19 01:02:50;;;;;;;10.57;6.20;;;;;;;;;;6258764;28;20044;-78
2023/08/19 01:06:01;;;;;;;8.90;5.97;;;;;;;;;;6254747;28;20055;-79
2023/08/19 01:09:30;;;;;;;9.07;6.20;;;;;;;;;;6269547;28;20045;-78
2023/08/19 01:12:42;;;;;;;9.40;5.80;;;;;;;;;;6259507;28;20056;-77
2023/08/19 01:16:06;;;;;;;8.65;5.90;;;;;;;;;;6285588;28;20045;-79
2023/08/19 01:19:20;;;;;;;9.63;6.28;;;;;;;;;;6255685;28;20045;-78
2023/08/19 01:22:32;;;;;;;10.50;5.90;;;;;;;;;;6270836;28;20485;-79
2023/08/19 01:25:34;;;;;;;8.90;6.05;;;;;;;;;;6255500;28;20052;-78
2023/08/19 01:28:36;;;;;;;8.00;5.90;;;;;;;;;;6259121;28;20037;-78
2023/08/19 01:31:38;;;;;;;8.35;6.05;;;;;;;;;;6261209;28;20052;-77
2023/08/19 01:34:40;;;;;;;8.13;5.87;;;;;;;;;;6257751;28;20118;-77
2023/08/19 01:37:55;;;;;;;7.95;6.18;;;;;;;;;;6274892;28;20045;-78
2023/08/19 01:40:57;;;;;;;10.57;5.78;;;;;;;;;;6257105;28;20049;-78
2023/08/19 01:44:01;;;;;;;8.63;6.00;;;;;;;;;;6257951;28;20054;-79
2023/08/19 01:47:18;;;;;;;7.40;5.68;;;;;;;;;;6257185;28;20057;-78
2023/08/19 01:50:20;;;;;;;9.85;5.68;;;;;;;;;;6258469;28;20041;-79
2023/08/19 01:53:21;;;;;;;9.38;5.80;;;;;;;;;;6275258;28;20052;-78
2023/08/19 01:56:23;;;;;;;9.52;5.60;;;;;;;;;;6260987;28;20495;-78
2023/08/19 01:59:25;;;;;;;10.38;5.68;;;;;;;;;;6257436;28;20056;-78
2023/08/19 02:02:26;;;;;;;8.95;5.55;;;;;;;;;;6245133;28;20052;-78
2023/08/19 02:05:28;;;;;;;9.63;6.00;;;;;;;;;;6260062;28;20045;-79
2023/08/19 02:08:31;;;;;;;9.85;5.88;;;;;;;;;;6254457;28;20134;-77
2023/08/19 02:11:35;;;;;;;8.20;5.65;;;;;;;;;;6261203;28;20048;-76
2023/08/19 02:14:37;;;;;;;9.20;5.28;;;;;;;;;;6260073;28;20048;-78
2023/08/19 02:17:39;;;;;;;8.68;5.47;;;;;;;;;;6259561;28;20087;-78
2023/08/19 02:20:46;;;;;;;6.72;5.63;;;;;;;;;;6255381;28;20045;-78
2023/08/19 02:23:47;;;;;;;9.77;5.80;;;;;;;;;;6256991;28;20091;-77
2023/08/19 02:26:49;;;;;;;7.03;5.45;;;;;;;;;;6262259;28;20045;-78
2023/08/19 02:29:50;;;;;;;7.28;5.55;;;;;;;;;;6273057;28;20041;-77
2023/08/19 02:32:52;;;;;;;8.98;5.75;;;;;;;;;;6265164;28;20443;-79
2023/08/19 02:35:55;;;;;;;9.18;5.97;;;;;;;;;;6266552;28;20615;-79
2023/08/19 02:38:57;;;;;;;7.57;5.40;;;;;;;;;;6272731;28;20049;-78
2023/08/19 02:41:59;;;;;;;8.67;5.90;;;;;;;;;;6263722;28;20076;-76
2023/08/19 02:45:00;;;;;;;9.70;5.90;;;;;;;;;;6271861;28;20048;-77
2023/08/19 02:48:02;;;;;;;7.05;5.25;;;;;;;;;;6262537;28;20049;-77
2023/08/19 02:51:04;;;;;;;8.83;5.33;;;;;;;;;;6259645;28;20041;-77
2023/08/19 02:54:06;;;;;;;6.75;4.65;;;;;;;;;;6260160;28;20505;-78
2023/08/19 02:57:08;;;;;;;6.63;5.32;;;;;;;;;;6274739;28;20549;-75
2023/08/19 03:00:10;;;;;;;6.63;5.20;;;;;;;;;;6275607;28;20048;-77
2023/08/19 03:03:12;;;;;;;;;;;;;;;;;;6267550;28;20047;-77
2023/08/19 03:06:14;;;;;;;11.40;5.05;;;;;;;;;;6283363;28;19928;-76
2023/08/19 03:09:16;;;;;;;8.13;5.40;;;;;;;;;;6252376;28;20139;-76
2023/08/19 03:12:17;;;;;;;11.07;5.68;;;;;;;;;;6267397;28;20098;-76
2023/08/19 03:15:19;;;;;;;7.57;5.82;;;;;;;;;;6287600;28;20078;-77
2023/08/19 03:18:21;;;;;;;8.00;5.43;;;;;;;;;;6244611;28;20041;-76
2023/08/19 03:21:23;;;;;;;9.65;5.40;;;;;;;;;;6243019;28;20126;-75
2023/08/19 03:24:24;;;;;;;6.40;5.32;;;;;;;;;;6261805;28;20083;-77
2023/08/19 03:27:26;;;;;;;7.95;5.47;;;;;;;;;;6287073;28;20052;-76
2023/08/19 03:30:28;;;;;;;8.20;4.90;;;;;;;;;;6285203;28;20127;-78
2023/08/19 03:33:30;;;;;;;7.03;5.07;;;;;;;;;;6268837;28;20044;-78
2023/08/19 03:36:32;;;;;;;10.17;5.50;;;;;;;;;;6275299;28;20123;-78
2023/08/19 03:39:34;;;;;;;13.07;5.20;;;;;;;;;;6256870;28;20037;-76
2023/08/19 03:42:35;;;;;;;9.90;5.35;;;;;;;;;;6289913;28;20043;-78
2023/08/19 03:45:37;;;;;;;8.68;5.60;;;;;;;;;;6263378;28;20041;-78
2023/08/19 03:48:40;;;;;;;7.88;4.88;;;;;;;;;;6291463;28;20053;-79
2023/08/19 03:51:42;;;;;;;9.20;5.20;;;;;;;;;;6255835;28;20041;-77
2023/08/19 03:54:45;;;;;;;9.50;4.82;;;;;;;;;;6270757;28;20079;-77
2023/08/19 03:57:46;;;;;;;6.80;4.57;;;;;;;;;;6253291;28;20049;-75
2023/08/19 04:00:48;;;;;;;7.75;4.72;;;;;;;;;;6285621;28;20045;-76
2023/08/19 04:03:55;;;;;;;9.57;5.10;;;;;;;;;;6252125;28;20041;-75
2023/08/19 04:06:56;;;;;;;7.53;4.50;;;;;;;;;;6245509;28;20053;-76
2023/08/19 04:09:59;;;;;;;8.95;4.72;;;;;;;;;;6250476;28;20665;-75
2023/08/19 04:13:01;;;;;;;10.17;5.17;;;;;;;;;;6255561;28;20049;-76
2023/08/19 04:16:04;;;;;;;9.90;5.05;;;;;;;;;;6251162;28;20048;-77
2023/08/19 04:19:06;;;;;;;9.00;4.93;;;;;;;;;;6254589;28;20052;-76
2023/08/19 04:22:11;;;;;;;7.83;4.87;;;;;;;;;;6265008;28;20072;-76
2023/08/19 04:25:13;;;;;;;8.20;5.50;;;;;;;;;;6250304;28;20489;-77
2023/08/19 04:28:17;;;;;;;9.65;5.60;;;;;;;;;;6268959;28;20041;-76
2023/08/19 04:31:19;;;;;;;8.50;5.30;;;;;;;;;;6250030;28;20037;-77
2023/08/19 04:34:29;;;;;;;8.38;5.60;;;;;;;;;;6252659;28;20444;-76
2023/08/19 04:37:32;;;;;;;8.50;5.28;;;;;;;;;;6252819;28;20040;-75
2023/08/19 04:40:36;;;;;;;8.15;5.43;;;;;;;;;;6264055;28;20041;-76
2023/08/19 04:43:38;;;;;;;7.30;5.13;;;;;;;;;;6251117;28;20525;-77
2023/08/19 04:46:40;;;;;;;7.87;4.93;;;;;;;;;;6284715;28;20057;-79
2023/08/19 04:49:42;;;;;;;8.45;4.97;;;;;;;;;;6255765;28;20384;-78
2023/08/19 04:52:44;;;;;;;6.28;4.85;;;;;;;;;;6240653;28;20041;-78
2023/08/19 04:55:47;;;;;;;10.27;5.35;;;;;;;;;;6272713;28;20049;-77
2023/08/19 04:58:49;;;;;;;8.55;4.97;;;;;;;;;;6289896;28;20065;-78
2023/08/19 05:01:51;;;;;;;9.30;5.10;;;;;;;;;;6254504;28;20817;-78
2023/08/19 05:04:53;;;;;;;7.53;4.70;;;;;;;;;;6259644;28;20041;-79
2023/08/19 05:07:55;;;;;;;7.47;5.15;;;;;;;;;;6274300;28;20446;-77
2023/08/19 05:10:56;;;;;;;8.32;5.20;;;;;;;;;;6254494;28;20507;-76
2023/08/19 05:13:58;;;;;;;10.13;5.00;;;;;;;;;;6288603;28;20048;-76
2023/08/19 05:17:00;;;;;;;9.98;4.80;;;;;;;;;;6257999;28;20053;-76
2023/08/19 05:20:03;;;;;;;7.15;5.50;;;;;;;;;;6287907;28;20045;-78
2023/08/19 05:23:04;;;;;;;7.78;5.20;;;;;;;;;;6263888;28;20052;-77
2023/08/19 05:26:06;;;;;;;10.48;5.15;;;;;;;;;;6279974;28;20092;-79
2023/08/19 05:29:08;;;;;;;9.00;5.00;;;;;;;;;;6286509;28;20130;-77
2023/08/19 05:32:09;;;;;;;6.90;4.80;;;;;;;;;;6258858;28;20132;-78
2023/08/19 05:35:11;;;;;;;6.15;4.57;;;;;;;;;;6260341;28;20625;-76
2023/08/19 05:38:13;;;;;;;7.32;4.57;;;;;;;;;;6259596;28;20048;-78
2023/08/19 05:41:14;;;;;;;9.35;4.88;;;;;;;;;;6257975;28;20493;-78
2023/08/19 05:44:16;;;;;;;8.65;4.82;;;;;;;;;;6293319;28;20453;-79
2023/08/19 05:47:17;;;;;;;7.78;4.80;;;;;;;;;;6260834;28;20515;-81
2023/08/19 05:50:20;;;;;;;7.78;4.82;;;;;;;;;;6242256;28;20188;-81
2023/08/19 05:53:22;;;;;;;8.50;4.65;;;;;;;;;;6248348;28;20052;-80
2023/08/19 05:56:24;;;;;;;9.32;4.90;;;;;;;;;;6262573;28;20083;-78
2023/08/19 05:59:25;;;;;;;6.60;4.80;;;;;;;;;;6263354;28;20080;-78
2023/08/19 06:02:27;;;;;;;7.82;4.90;;;;;;;;;;6261762;28;20048;-79
2023/08/19 06:05:29;;;;;;;6.68;4.80;;;;;;;;;;6259089;28;20036;-79
2023/08/19 06:08:30;;;;;;;8.18;4.82;;;;;;;;;;6276859;28;20049;-79
2023/08/19 06:11:32;;;;;;;9.30;4.88;;;;;;;;;;6264055;28;20041;-77
2023/08/19 06:14:34;;;;;;;9.32;4.68;;;;;;;;;;6265287;28;20045;-78
2023/08/19 06:17:35;;;;;;;7.20;4.63;;;;;;;;;;6245087;28;20056;-79
2023/08/19 06:20:37;;;;;;;6.32;5.05;;;;;;;;;;6261714;28;20037;-78
2023/08/19 06:23:39;;;;;;;9.13;5.53;;;;;;;;;;6242484;28;20045;-79
2023/08/19 06:26:40;;;;;;;9.30;4.95;;;;;;;;;;6280025;28;20058;-80
2023/08/19 06:29:42;;;;;;;8.77;5.35;;;;;;;;;;6289707;28;20052;-80
2023/08/19 06:32:44;;;;;;;8.23;5.35;;;;;;;;;;6286758;28;20044;-80
2023/08/19 06:35:51;;;;;;;8.13;4.80;;;;;;;;;;6289538;28;20045;-80
2023/08/19 06:39:07;;;;;;;10.65;4.93;;;;;;;;;;6287602;28;20048;-79
2023/08/19 06:42:10;;;;;;;6.25;4.40;;;;;;;;;;6265744;28;20052;-79
2023/08/19 06:45:15;;;;;;;218.98;118.53;;;;;;;;;;6288437;28;20057;-79
2023/08/19 06:48:17;;;;;;;8.00;4.85;;;;;;;;;;6284017;28;20044;-78
2023/08/19 06:51:19;;;;;;;9.88;5.15;;;;;;;;;;6287637;28;20493;-79
2023/08/19 06:54:21;;;;;;;8.27;4.65;;;;;;;;;;6286875;28;20048;-78
2023/08/19 06:57:28;;;;;;;6.82;5.30;;;;;;;;;;6304168;28;20048;-77
2023/08/19 07:00:33;;;;;;;8.23;5.10;;;;;;;;;;6290686;28;20052;-79
2023/08/19 07:03:36;;;;;;;8.73;4.72;;;;;;;;;;6303598;28;20055;-80
2023/08/19 07:06:40;;;;;;;10.45;5.25;;;;;;;;;;6273052;28;20036;-80
2023/08/19 07:09:42;;;;;;;7.40;6.30;;;;;;;;;;6284391;28;20054;-79
2023/08/19 07:12:44;;;;;;;5.10;4.60;;;;;;;;;;6286811;28;20195;-79
2023/08/19 07:15:51;;;;;;;8.18;4.70;;;;;;;;;;6272072;28;20438;-80
2023/08/19 07:18:55;;;;;;;7.50;4.72;;;;;;;;;;6288683;28;20386;-80
2023/08/19 07:21:58;;;;;;;6.63;4.78;;;;;;;;;;6285956;28;20049;-81
2023/08/19 07:25:00;;;;;;;5.88;4.00;;;;;;;;;;6288155;28;20079;-80
2023/08/19 07:28:03;;;;;;;7.45;4.32;;;;;;;;;;6301955;28;21281;-80
2023/08/19 07:31:05;;;;;;;7.95;4.05;;;;;;;;;;6290216;28;20421;-80
2023/08/19 07:34:07;;;;;;;6.90;4.30;;;;;;;;;;6288314;28;20044;-80
2023/08/19 07:37:09;;;;;;;8.37;4.00;;;;;;;;;;6286932;28;20044;-80
2023/08/19 07:40:12;;;;;;;6.50;4.30;;;;;;;;;;6287289;28;20048;-81
2023/08/19 07:43:13;;;;;;;5.23;3.97;;;;;;;;;;6287399;28;20434;-80
2023/08/19 07:46:15;;;;;;;7.38;4.13;;;;;;;;;;6268692;28;20047;-79
2023/08/19 07:49:17;;;;;;;6.63;4.22;;;;;;;;;;6283611;28;20051;-80
2023/08/19 07:52:20;;;;;;;6.38;4.72;;;;;;;;;;6283174;28;20079;-80
2023/08/19 07:55:22;;;;;;;9.95;6.18;;;;;;;;;;6258908;28;20048;-78
2023/08/19 07:58:23;;;;;;;6.00;3.70;;;;;;;;;;6237996;28;20555;-77
2023/08/19 08:01:25;;;;;;;4.57;3.80;;;;;;;;;;6254523;28;20378;-77
2023/08/19 08:04:28;;;;;;;5.27;4.00;;;;;;;;;;6272390;28;20451;-78
2023/08/19 08:07:30;;;;;;;3.72;3.42;;;;;;;;;;6255357;28;20440;-77
2023/08/19 08:10:32;;;;;;;5.40;3.75;;;;;;;;;;6252755;28;20128;-77
2023/08/19 08:13:34;;;;;;;4.47;3.40;;;;;;;;;;6260332;28;20396;-77
2023/08/19 08:16:35;;;;;;;5.37;3.60;;;;;;;;;;6260870;28;20126;-78
2023/08/19 08:19:38;;;;;;;4.05;3.60;;;;;;;;;;6243216;28;20558;-78
2023/08/19 08:22:40;;;;;;;3.50;3.20;;;;;;;;;;6271652;28;20118;-78
2023/08/19 08:25:41;;;;;;;4.25;3.58;;;;;;;;;;6274874;28;20045;-77
2023/08/19 08:28:43;;;;;;;4.30;3.90;;;;;;;;;;6239354;28;20045;-76
2023/08/19 08:31:45;;;;;;;6.40;3.85;;;;;;;;;;6256798;28;20045;-78
2023/08/19 08:34:46;;;;;;;5.35;3.50;;;;;;;;;;6266276;28;20044;-77
2023/08/19 08:37:48;;;;;;;5.20;3.22;;;;;;;;;;6287155;28;20040;-78
2023/08/19 08:40:50;;;;;;;4.68;4.07;;;;;;;;;;6284120;28;20052;-77
2023/08/19 08:43:52;;;;;;;4.82;3.58;;;;;;;;;;6285607;28;20095;-77
2023/08/19 08:46:56;;;;;;;5.45;3.70;;;;;;;;;;6285118;28;20115;-78
2023/08/19 08:49:58;;;;;;;5.10;4.03;;;;;;;;;;6248031;28;20509;-78
2023/08/19 08:53:01;;;;;;;5.82;3.65;;;;;;;;;;6274434;28;20048;-77
2023/08/19 08:56:03;;;;;;;5.43;3.60;;;;;;;;;;6283067;28;20059;-78
2023/08/19 08:59:04;;;;;;;3.85;3.42;;;;;;;;;;6285138;28;20051;-77
2023/08/19 09:02:08;;;;;;;4.00;3.47;;;;;;;;;;6279841;28;20044;-76
2023/08/19 09:05:12;;;;;;;4.30;3.28;;;;;;;;;;6272111;28;20041;-77
2023/08/19 09:08:18;;;;;;;4.32;3.20;;;;;;;;;;6284533;28;20184;-78
2023/08/19 09:11:25;;;;;;;5.72;3.00;;;;;;;;;;6301624;28;20048;-78
2023/08/19 09:14:44;;;;;;;3.40;3.10;;;;;;;;;;6288878;28;20060;-79
2023/08/19 09:17:46;;;;;;;4.10;3.00;;;;;;;;;;6287691;28;20036;-78
2023/08/19 09:20:52;;;;;;;5.32;3.10;;;;;;;;;;6292861;28;20062;-79
2023/08/19 09:23:58;;;;;;;4.78;3.60;;;;;;;;;;6285167;28;20041;-78
2023/08/19 09:27:02;;;;;;;4.25;3.30;;;;;;;;;;6288287;28;20131;-77
2023/08/19 09:30:05;;;;;;;;;;;;;;;;;;6280459;28;20051;-76
2023/08/19 09:33:06;;;;;;;4.95;3.15;;;;;;;;;;6282940;28;19956;-77
2023/08/19 09:36:08;;;;;;;3.75;3.38;;;;;;;;;;6278683;28;20521;-75
2023/08/19 09:39:10;;;;;;;4.95;3.72;;;;;;;;;;6263754;28;20037;-79
2023/08/19 09:42:11;;;;;;;4.72;3.63;;;;;;;;;;6286873;28;20033;-78
2023/08/19 09:45:20;;;;;;;6.10;3.47;;;;;;;;;;6274595;28;20049;-77
2023/08/19 09:48:22;;;;;;;6.30;3.42;;;;;;;;;;6289061;28;20052;-77
2023/08/19 09:51:25;;;;;;;6.22;3.17;;;;;;;;;;6281394;28;20052;-77
2023/08/19 09:54:27;;;;;;;5.45;3.45;;;;;;;;;;6265504;28;20041;-77
2023/08/19 09:57:33;;;;;;;5.22;3.40;;;;;;;;;;6269027;28;20083;-78
2023/08/19 10:00:35;;;;;;;5.30;3.67;;;;;;;;;;6273906;28;20388;-79
2023/08/19 10:03:36;;;;;;;4.38;3.42;;;;;;;;;;6300565;28;20047;-79
2023/08/19 10:06:43;;;;;;;5.03;3.72;;;;;;;;;;6286997;28;20044;-79
2023/08/19 10:09:45;;;;;;;3.92;3.20;;;;;;;;;;6285139;28;20048;-78
2023/08/19 10:12:50;;;;;;;4.93;3.50;;;;;;;;;;6283689;28;20055;-78
2023/08/19 10:15:57;;;;;;;6.20;3.90;;;;;;;;;;6254816;28;20045;-77
2023/08/19 10:19:00;;;;;;;4.05;3.50;;;;;;;;;;6259130;28;20045;-79
2023/08/19 10:22:02;;;;;;;4.85;3.60;;;;;;;;;;6263078;28;20065;-78
2023/08/19 10:25:06;;;;;;;3.95;3.53;;;;;;;;;;6235966;28;20041;-79
2023/08/19 10:28:13;;;;;;;3.92;3.40;;;;;;;;;;6255634;28;20041;-78
2023/08/19 10:31:14;;;;;;;5.63;3.60;;;;;;;;;;6271080;28;20049;-79
2023/08/19 10:34:19;;;;;;;5.18;4.05;;;;;;;;;;6258709;28;20041;-78
2023/08/19 10:37:28;;;;;;;5.10;3.75;;;;;;;;;;6259442;28;20056;-78
2023/08/19 10:40:32;;;;;;;4.95;3.60;;;;;;;;;;6256661;28;20071;-78
2023/08/19 10:43:52;;;;;;;4.25;3.83;;;;;;;;;;6275191;28;20056;-78
2023/08/19 10:47:10;;;;;;;6.72;3.95;;;;;;;;;;6259667;28;20060;-81
2023/08/19 10:50:12;;;;;;;4.97;4.18;;;;;;;;;;6255265;28;20388;-80
2023/08/19 10:53:19;;;;;;;5.55;3.70;;;;;;;;;;6254661;28;20044;-78
2023/08/19 10:56:23;;;;;;;5.40;3.47;;;;;;;;;;6274756;28;20048;-78
2023/08/19 10:59:25;;;;;;;3.78;3.47;;;;;;;;;;6281120;28;20041;-79
2023/08/19 11:02:27;;;;;;;;;;;;;;;;;;6252190;28;20100;-80
2023/08/19 11:05:29;;;;;;;;;;;;;;;;;;6243801;28;19931;-79
2023/08/19 11:08:40;;;;;;;4.90;4.00;;;;;;;;;;6248151;28;19921;-79
2023/08/19 11:11:42;;;;;;;6.38;3.78;;;;;;;;;;6241592;28;20048;-80
2023/08/19 11:14:50;;;;;;;4.93;4.00;;;;;;;;;;6251900;28;20495;-80
2023/08/19 11:17:52;;;;;;;4.15;3.75;;;;;;;;;;6254457;28;20085;-79
2023/08/19 11:20:54;;;;;;;4.55;3.85;;;;;;;;;;6243906;28;20059;-79
2023/08/19 11:23:56;;;;;;;6.40;3.85;;;;;;;;;;6254335;28;20083;-80
2023/08/19 11:26:57;;;;;;;7.43;3.78;;;;;;;;;;6261712;28;20045;-79
2023/08/19 11:30:00;;;;;;;5.28;4.10;;;;;;;;;;6251614;28;20044;-79
2023/08/19 11:33:02;;;;;;;;;;;;;;;;;;6253909;28;20060;-79
2023/08/19 11:36:04;;;;;;;9.07;6.22;;;;;;;;;;6281076;28;20044;-78
2023/08/19 11:39:07;;;;;;;4.88;4.30;;;;;;;;;;6275145;28;20079;-79
2023/08/19 11:42:13;;;;;;;6.90;4.50;;;;;;;;;;6263708;28;20045;-79
2023/08/19 11:45:14;;;;;;;4.93;4.43;;;;;;;;;;6264417;28;20041;-79
2023/08/19 11:48:19;;;;;;;4.40;4.00;;;;;;;;;;6279313;28;20049;-78
2023/08/19 11:51:21;;;;;;;6.05;4.35;;;;;;;;;;6251928;28;20052;-78
2023/08/19 11:54:26;;;;;;;5.15;3.80;;;;;;;;;;6254958;28;20056;-79
2023/08/19 11:57:35;;;;;;;5.72;3.97;;;;;;;;;;6256510;28;20040;-78
2023/08/19 12:00:36;;;;;;;7.47;4.03;;;;;;;;;;6256275;28;20068;-79
2023/08/19 12:03:43;;;;;;;5.95;4.10;;;;;;;;;;6241544;28;20093;-79
2023/08/19 12:06:47;;;;;;;7.10;4.50;;;;;;;;;;6257837;28;20041;-78
2023/08/19 12:09:48;;;;;;;5.43;3.83;;;;;;;;;;6251483;28;20090;-78
2023/08/19 12:13:00;;;;;;;5.93;4.50;;;;;;;;;;6254163;28;20576;-77
2023/08/19 12:16:03;;;;;;;4.73;4.00;;;;;;;;;;6270740;28;20051;-78
2023/08/19 12:19:05;;;;;;;5.65;3.95;;;;;;;;;;6255875;28;20055;-78
2023/08/19 12:22:08;;;;;;;5.78;3.60;;;;;;;;;;6255079;28;20076;-79
2023/08/19 12:25:09;;;;;;;5.57;4.00;;;;;;;;;;6250439;28;20049;-78
2023/08/19 12:28:11;;;;;;;9.63;8.73;;;;;;;;;;6255426;28;20049;-78
2023/08/19 12:31:13;;;;;;;5.68;4.07;;;;;;;;;;6247634;28;20835;-77
2023/08/19 12:34:15;;;;;;;6.88;4.85;;;;;;;;;;6251813;28;20049;-78
2023/08/19 12:37:17;;;;;;;5.32;4.22;;;;;;;;;;6252158;28;20057;-78
2023/08/19 12:40:19;;;;;;;6.03;4.22;;;;;;;;;;6253012;28;20147;-77
2023/08/19 12:43:21;;;;;;;7.00;3.88;;;;;;;;;;6252923;28;20415;-78
2023/08/19 12:46:23;;;;;;;7.15;4.15;;;;;;;;;;6251167;28;20076;-78
2023/08/19 12:49:24;;;;;;;8.27;4.40;;;;;;;;;;6252543;28;20041;-78
2023/08/19 12:52:26;;;;;;;6.18;4.47;;;;;;;;;;6247993;28;20110;-80
2023/08/19 12:55:29;;;;;;;;;;;;;;;;;;6257065;28;20090;-79
2023/08/19 12:58:30;;;;;;;5.97;4.38;;;;;;;;;;6257850;28;20027;-79
2023/08/19 13:01:32;;;;;;;;;;;;;;;;;;6256403;28;20151;-80
2023/08/19 13:04:34;;;;;;;4.30;3.90;;;;;;;;;;6258083;28;21256;-78
2023/08/19 13:07:36;;;;;;;;;;;;;;;;;;6257053;28;20191;-79
2023/08/19 13:10:38;;;;;;;4.37;3.97;;;;;;;;;;6248402;28;19933;-82
2023/08/19 13:13:39;;;;;;;5.47;4.30;;;;;;;;;;6239220;28;20052;-82
2023/08/19 13:16:41;;;;;;;6.70;4.18;;;;;;;;;;6247371;28;20040;-82
2023/08/19 13:19:43;;;;;;;5.20;4.28;;;;;;;;;;6284392;28;20044;-81
2023/08/19 13:22:47;;;;;;;6.45;4.30;;;;;;;;;;6301745;28;20044;-80
2023/08/19 13:25:48;;;;;;;7.10;4.25;;;;;;;;;;6282195;28;20035;-80
2023/08/19 13:28:50;;;;;;;5.32;4.43;;;;;;;;;;6283565;28;20060;-80
2023/08/19 13:31:51;;;;;;;5.40;4.88;;;;;;;;;;6273826;28;20068;-80
2023/08/19 13:34:53;;;;;;;6.25;4.50;;;;;;;;;;6275780;28;20056;-81
2023/08/19 13:37:55;;;;;;;4.88;4.28;;;;;;;;;;6266645;28;20131;-81
2023/08/19 13:40:56;;;;;;;5.78;4.70;;;;;;;;;;6272143;28;20435;-80
2023/08/19 13:43:58;;;;;;;8.07;4.35;;;;;;;;;;6257099;28;20049;-80
2023/08/19 13:47:00;;;;;;;5.22;4.72;;;;;;;;;;6260549;28;20122;-80
2023/08/19 13:50:03;;;;;;;5.78;4.55;;;;;;;;;;6273569;28;20052;-78
2023/08/19 13:53:05;;;;;;;5.90;4.40;;;;;;;;;;6288399;28;20136;-78
2023/08/19 13:56:07;;;;;;;4.97;4.47;;;;;;;;;;6272154;28;20069;-77
2023/08/19 13:59:08;;;;;;;7.80;4.50;;;;;;;;;;6278920;28;20049;-79
2023/08/19 14:02:10;;;;;;;5.78;4.68;;;;;;;;;;6256130;28;20057;-79
2023/08/19 14:05:15;;;;;;;5.43;4.70;;;;;;;;;;6283856;28;20128;-78
2023/08/19 14:08:17;;;;;;;5.63;4.60;;;;;;;;;;6281270;28;20598;-77
2023/08/19 14:11:18;;;;;;;8.13;5.00;;;;;;;;;;6293986;28;20052;-78
2023/08/19 14:14:20;;;;;;;6.28;4.72;;;;;;;;;;6289797;28;20040;-78
2023/08/19 14:17:22;;;;;;;5.72;4.63;;;;;;;;;;6284102;28;20049;-78
2023/08/19 14:20:23;;;;;;;5.47;4.40;;;;;;;;;;6279590;28;20044;-78
2023/08/19 14:23:25;;;;;;;6.18;4.82;;;;;;;;;;6231902;28;20056;-78
2023/08/19 14:26:28;;;;;;;5.22;4.70;;;;;;;;;;6254462;28;20029;-77
2023/08/19 14:29:30;;;;;;;7.80;4.45;;;;;;;;;;6245412;28;20041;-77
2023/08/19 14:32:32;;;;;;;7.05;5.20;;;;;;;;;;6277930;28;20418;-77
2023/08/19 14:35:33;;;;;;;6.78;4.15;;;;;;;;;;6276801;28;20036;-77
2023/08/19 14:38:35;;;;;;;7.43;4.25;;;;;;;;;;6277663;28;20052;-77
2023/08/19 14:41:37;;;;;;;5.50;4.32;;;;;;;;;;6277680;28;20055;-75
2023/08/19 14:44:39;;;;;;;6.80;4.50;;;;;;;;;;6290416;28;20522;-76
2023/08/19 14:47:41;;;;;;;4.85;4.40;;;;;;;;;;6253510;28;20642;-77
2023/08/19 14:50:43;;;;;;;;;;;;;;;;;;6236765;28;20100;-76
2023/08/19 14:53:44;;;;;;;4.77;4.27;;;;;;;;;;6249889;28;19932;-76
2023/08/19 14:56:46;;;;;;;6.53;4.78;;;;;;;;;;6248728;28;20126;-76
2023/08/19 14:59:47;;;;;;;6.45;4.72;;;;;;;;;;6270475;28;20045;-76
2023/08/19 15:02:51;;;;;;;7.65;5.00;;;;;;;;;;6252010;28;20052;-76
2023/08/19 15:05:53;;;;;;;6.97;4.95;;;;;;;;;;6253187;28;20465;-77
2023/08/19 15:08:55;;;;;;;5.40;4.90;;;;;;;;;;6253274;28;20052;-77
2023/08/19 15:11:56;;;;;;;7.82;5.15;;;;;;;;;;6252929;28;20213;-77
2023/08/19 15:14:58;;;;;;;9.30;5.28;;;;;;;;;;6262810;28;20041;-76
2023/08/19 15:18:00;;;;;;;7.03;5.20;;;;;;;;;;6254194;28;20037;-77
2023/08/19 15:21:02;;;;;;;7.68;5.78;;;;;;;;;;6239099;28;21055;-78
2023/08/19 15:24:04;;;;;;;11.10;6.03;;;;;;;;;;6256476;28;20052;-77
2023/08/19 15:27:07;;;;;;;6.80;5.90;;;;;;;;;;6257556;28;20055;-77
2023/08/19 15:30:10;;;;;;;7.07;6.00;;;;;;;;;;6256062;28;20053;-77
2023/08/19 15:33:11;;;;;;;9.13;7.13;;;;;;;;;;6260568;28;20437;-77
2023/08/19 15:36:13;;;;;;;10.05;7.50;;;;;;;;;;6259287;28;20179;-77
2023/08/19 15:39:18;;;;;;;8.32;6.40;;;;;;;;;;6256649;28;20045;-78
2023/08/19 15:42:19;;;;;;;9.00;6.50;;;;;;;;;;6258440;28;20128;-80
2023/08/19 15:45:21;;;;;;;9.07;6.57;;;;;;;;;;6259451;28;20120;-78
2023/08/19 15:48:23;;;;;;;8.15;5.57;;;;;;;;;;6252199;28;20050;-80
2023/08/19 15:51:25;;;;;;;23.75;19.65;;;;;;;;;;6262275;28;20048;-79
2023/08/19 15:54:27;;;;;;;17.55;14.60;;;;;;;;;;6249531;28;20498;-81
2023/08/19 15:57:29;;;;;;;7.40;5.43;;;;;;;;;;6258928;28;20040;-79
2023/08/19 16:00:32;;;;;;;6.82;5.50;;;;;;;;;;6259192;28;20052;-79
2023/08/19 16:03:34;;;;;;;8.45;5.57;;;;;;;;;;6263773;28;20414;-78
2023/08/19 16:06:36;;;;;;;9.00;5.88;;;;;;;;;;6263291;28;20064;-80
2023/08/19 16:09:38;;;;;;;5.78;4.75;;;;;;;;;;6276606;28;20045;-78
2023/08/19 16:12:40;;;;;;;7.35;4.97;;;;;;;;;;6262751;28;20041;-81
2023/08/19 16:15:43;;;;;;;5.60;4.70;;;;;;;;;;6260220;28;20041;-79
2023/08/19 16:18:47;;;;;;;6.40;5.22;;;;;;;;;;6232284;28;20144;-77
2023/08/19 16:21:49;;;;;;;6.78;5.22;;;;;;;;;;6259205;28;20577;-79
2023/08/19 16:24:50;;;;;;;7.67;5.40;;;;;;;;;;6247250;28;20064;-80
2023/08/19 16:27:52;;;;;;;7.67;5.27;;;;;;;;;;6260225;28;20474;-80
2023/08/19 16:30:54;;;;;;;6.13;5.47;;;;;;;;;;6261139;28;20048;-79
2023/08/19 16:33:56;;;;;;;5.93;4.93;;;;;;;;;;6249882;28;20033;-80
2023/08/19 16:36:58;;;;;;;5.17;4.67;;;;;;;;;;6261103;28;20049;-79
2023/08/19 16:39:59;;;;;;;6.03;5.30;;;;;;;;;;6260797;28;20052;-79
2023/08/19 16:43:02;;;;;;;6.97;5.07;;;;;;;;;;6262846;28;20053;-78
2023/08/19 16:46:04;;;;;;;;;;;;;;;;;;6255899;28;20452;-78
2023/08/19 16:49:05;;;;;;;8.52;4.85;;;;;;;;;;6257516;28;19927;-78
2023/08/19 16:52:07;;;;;;;8.70;5.45;;;;;;;;;;6256747;28;20048;-77
2023/08/19 16:55:09;;;;;;;6.03;4.83;;;;;;;;;;6253536;28;20041;-78
2023/08/19 16:58:10;;;;;;;8.60;5.20;;;;;;;;;;6242340;28;20466;-79
2023/08/19 17:01:12;;;;;;;6.10;5.30;;;;;;;;;;6258184;28;20426;-78
2023/08/19 17:04:14;;;;;;;7.55;5.65;;;;;;;;;;6260323;28;20191;-79
2023/08/19 17:07:19;;;;;;;8.02;5.10;;;;;;;;;;6261226;28;20048;-76
2023/08/19 17:10:21;;;;;;;7.70;5.80;;;;;;;;;;6258300;28;20049;-77
2023/08/19 17:13:27;;;;;;;7.20;6.03;;;;;;;;;;6257406;28;20045;-79
2023/08/19 17:16:28;;;;;;;7.85;5.97;;;;;;;;;;6258563;28;20503;-77
2023/08/19 17:19:30;;;;;;;6.50;5.35;;;;;;;;;;6257660;28;20052;-75
2023/08/19 17:22:36;;;;;;;7.63;6.07;;;;;;;;;;6255446;28;20049;-79
2023/08/19 17:25:38;;;;;;;8.38;6.03;;;;;;;;;;6254650;28;20826;-79
2023/08/19 17:28:40;;;;;;;10.02;5.85;;;;;;;;;;6255977;28;20695;-77
2023/08/19 17:31:42;;;;;;;7.07;5.40;;;;;;;;;;6257116;28;20068;-79
2023/08/19 17:34:43;;;;;;;8.70;5.87;;;;;;;;;;6272412;28;20616;-78
2023/08/19 17:37:45;;;;;;;7.33;5.47;;;;;;;;;;6258382;28;20048;-79
2023/08/19 17:40:56;;;;;;;8.63;6.00;;;;;;;;;;6260356;28;20175;-78
2023/08/19 17:43:59;;;;;;;6.47;5.80;;;;;;;;;;6261241;28;20045;-80
2023/08/19 17:47:00;;;;;;;7.18;5.65;;;;;;;;;;6257532;28;20037;-80
2023/08/19 17:50:03;;;;;;;6.57;5.82;;;;;;;;;;6260787;28;20048;-78
2023/08/19 17:53:05;;;;;;;9.50;5.97;;;;;;;;;;6260736;28;20056;-79
2023/08/19 17:56:09;;;;;;;7.85;5.75;;;;;;;;;;6271111;28;20048;-79
2023/08/19 17:59:11;;;;;;;8.65;6.32;;;;;;;;;;6276943;28;20053;-81
2023/08/19 18:02:13;;;;;;;9.05;5.60;;;;;;;;;;6258232;28;20037;-80
2023/08/19 18:05:15;;;;;;;8.15;5.90;;;;;;;;;;6264775;28;20056;-80
2023/08/19 18:08:17;;;;;;;6.50;5.80;;;;;;;;;;6293510;28;20048;-78
2023/08/19 18:11:18;;;;;;;11.23;6.07;;;;;;;;;;6260300;28;20079;-79
2023/08/19 18:14:24;;;;;;;7.55;5.55;;;;;;;;;;6300642;28;20162;-81
2023/08/19 18:17:25;;;;;;;7.78;5.45;;;;;;;;;;6261275;28;20155;-79
2023/08/19 18:20:27;;;;;;;6.45;5.82;;;;;;;;;;6263373;28;20033;-79